sensor_id;sensor_type;location;lat;lon;timestamp;temperature;humidity
53695;DHT22;39588;51.124;7.190;2023-02-13T00:01:21;8.20;99.90
53695;DHT22;39588;51.124;7.190;2023-02-13T00:03:47;8.20;99.90
53695;DHT22;39588;51.124;7.190;2023-02-13T00:06:13;8.20;99.90
53695;DHT22;39588;51.124;7.190;2023-02-13T00:13:33;8.00;99.90
53695;DHT22;39588;51.124;7.190;2023-02-13T00:16:03;7.90;99.90
53695;DHT22;39588;51.124;7.190;2023-02-13T00:18:34;7.80;99.90
53695;DHT22;39588;51.124;7.190;2023-02-13T00:21:06;7.80;99.90
53695;DHT22;39588;51.124;7.190;2023-02-13T00:23:33;7.70;99.90
53695;DHT22;39588;51.124;7.190;2023-02-13T00:26:00;7.70;99.90
53695;DHT22;39588;51.124;7.190;2023-02-13T00:28:26;7.70;99.90
53695;DHT22;39588;51.124;7.190;2023-02-13T00:30:52;7.70;99.90
53695;DHT22;39588;51.124;7.190;2023-02-13T00:33:18;7.70;99.90
53695;DHT22;39588;51.124;7.190;2023-02-13T00:45:27;7.50;99.90
53695;DHT22;39588;51.124;7.190;2023-02-13T00:47:53;7.50;99.90
53695;DHT22;39588;51.124;7.190;2023-02-13T00:50:18;7.50;99.90
53695;DHT22;39588;51.124;7.190;2023-02-13T01:09:46;7.40;99.90
53695;DHT22;39588;51.124;7.190;2023-02-13T01:12:12;7.50;99.90
53695;DHT22;39588;51.124;7.190;2023-02-13T01:14:37;7.40;99.90
53695;DHT22;39588;51.124;7.190;2023-02-13T01:24:21;7.60;99.90
53695;DHT22;39588;51.124;7.190;2023-02-13T01:26:46;7.60;99.90
53695;DHT22;39588;51.124;7.190;2023-02-13T01:29:12;7.60;99.90
53695;DHT22;39588;51.124;7.190;2023-02-13T01:31:38;7.70;99.90
53695;DHT22;39588;51.124;7.190;2023-02-13T01:38:57;7.60;99.90
53695;DHT22;39588;51.124;7.190;2023-02-13T01:41:25;7.50;99.90
53695;DHT22;39588;51.124;7.190;2023-02-13T01:43:54;7.50;99.90
53695;DHT22;39588;51.124;7.190;2023-02-13T01:46:36;7.50;99.90
53695;DHT22;39588;51.124;7.190;2023-02-13T01:49:17;7.40;99.90
53695;DHT22;39588;51.124;7.190;2023-02-13T01:51:46;7.30;99.90
53695;DHT22;39588;51.124;7.190;2023-02-13T01:54:20;7.30;99.90
53695;DHT22;39588;51.124;7.190;2023-02-13T01:56:54;7.30;99.90
53695;DHT22;39588;51.124;7.190;2023-02-13T01:59:27;7.30;99.90
53695;DHT22;39588;51.124;7.190;2023-02-13T02:01:54;7.20;99.90
53695;DHT22;39588;51.124;7.190;2023-02-13T02:04:27;7.30;99.90
53695;DHT22;39588;51.124;7.190;2023-02-13T02:07:04;7.30;99.90
53695;DHT22;39588;51.124;7.190;2023-02-13T02:09:34;7.30;99.90
53695;DHT22;39588;51.124;7.190;2023-02-13T02:19:35;7.30;99.90
53695;DHT22;39588;51.124;7.190;2023-02-13T02:34:05;7.20;99.90
53695;DHT22;39588;51.124;7.190;2023-02-13T02:48:31;7.20;99.90
53695;DHT22;39588;51.124;7.190;2023-02-13T02:51:29;7.30;99.90
53695;DHT22;39588;51.124;7.190;2023-02-13T02:54:14;7.20;99.90
53695;DHT22;39588;51.124;7.190;2023-02-13T02:57:06;7.20;99.90
53695;DHT22;39588;51.124;7.190;2023-02-13T02:59:35;7.20;99.90
53695;DHT22;39588;51.124;7.190;2023-02-13T03:02:20;7.10;99.90
53695;DHT22;39588;51.124;7.190;2023-02-13T03:05:26;7.10;99.90
53695;DHT22;39588;51.124;7.190;2023-02-13T03:08:11;7.10;99.90
53695;DHT22;39588;51.124;7.190;2023-02-13T03:10:37;7.10;99.90
53695;DHT22;39588;51.124;7.190;2023-02-13T03:13:47;7.10;99.90
53695;DHT22;39588;51.124;7.190;2023-02-13T03:16:22;7.10;99.90
53695;DHT22;39588;51.124;7.190;2023-02-13T03:19:37;7.10;99.90
53695;DHT22;39588;51.124;7.190;2023-02-13T03:23:01;7.00;99.90
53695;DHT22;39588;51.124;7.190;2023-02-13T03:25:34;7.10;99.90
53695;DHT22;39588;51.124;7.190;2023-02-13T03:28:04;7.10;99.90
53695;DHT22;39588;51.124;7.190;2023-02-13T03:34:03;7.10;99.90
53695;DHT22;39588;51.124;7.190;2023-02-13T03:36:59;7.10;99.90
53695;DHT22;39588;51.124;7.190;2023-02-13T03:40:05;7.00;99.90
53695;DHT22;39588;51.124;7.190;2023-02-13T03:42:59;7.00;99.90
53695;DHT22;39588;51.124;7.190;2023-02-13T03:45:35;7.00;99.90
53695;DHT22;39588;51.124;7.190;2023-02-13T03:48:35;7.00;99.90
53695;DHT22;39588;51.124;7.190;2023-02-13T03:53:58;6.90;99.90
53695;DHT22;39588;51.124;7.190;2023-02-13T03:56:26;7.00;99.90
53695;DHT22;39588;51.124;7.190;2023-02-13T03:59:18;6.90;99.90
53695;DHT22;39588;51.124;7.190;2023-02-13T04:02:15;6.90;99.90
53695;DHT22;39588;51.124;7.190;2023-02-13T04:04:50;6.90;99.90
53695;DHT22;39588;51.124;7.190;2023-02-13T04:07:18;7.00;99.90
53695;DHT22;39588;51.124;7.190;2023-02-13T04:10:02;7.00;99.90
53695;DHT22;39588;51.124;7.190;2023-02-13T04:12:46;7.10;99.90
53695;DHT22;39588;51.124;7.190;2023-02-13T04:15:41;7.10;99.90
53695;DHT22;39588;51.124;7.190;2023-02-13T04:18:19;7.10;99.90
53695;DHT22;39588;51.124;7.190;2023-02-13T04:25:40;7.00;99.90
53695;DHT22;39588;51.124;7.190;2023-02-13T04:28:07;7.10;99.90
53695;DHT22;39588;51.124;7.190;2023-02-13T04:30:33;7.00;99.90
53695;DHT22;39588;51.124;7.190;2023-02-13T04:37:51;7.00;99.90
53695;DHT22;39588;51.124;7.190;2023-02-13T04:52:27;7.00;99.90
53695;DHT22;39588;51.124;7.190;2023-02-13T04:54:52;7.00;99.90
53695;DHT22;39588;51.124;7.190;2023-02-13T04:57:18;6.90;99.90
53695;DHT22;39588;51.124;7.190;2023-02-13T04:59:44;6.90;99.90
53695;DHT22;39588;51.124;7.190;2023-02-13T05:02:09;6.80;99.90
53695;DHT22;39588;51.124;7.190;2023-02-13T05:04:35;6.80;99.90
53695;DHT22;39588;51.124;7.190;2023-02-13T05:07:01;6.80;99.90
53695;DHT22;39588;51.124;7.190;2023-02-13T05:09:26;6.80;99.90
53695;DHT22;39588;51.124;7.190;2023-02-13T05:11:53;6.80;99.90
53695;DHT22;39588;51.124;7.190;2023-02-13T05:14:18;6.80;99.90
53695;DHT22;39588;51.124;7.190;2023-02-13T05:31:50;6.40;99.90
53695;DHT22;39588;51.124;7.190;2023-02-13T05:36:42;6.40;99.90
53695;DHT22;39588;51.124;7.190;2023-02-13T05:41:34;6.40;99.90
53695;DHT22;39588;51.124;7.190;2023-02-13T05:43:59;6.40;99.90
53695;DHT22;39588;51.124;7.190;2023-02-13T05:51:18;6.40;99.90
53695;DHT22;39588;51.124;7.190;2023-02-13T05:53:44;6.40;99.90
53695;DHT22;39588;51.124;7.190;2023-02-13T05:56:10;6.30;99.90
53695;DHT22;39588;51.124;7.190;2023-02-13T06:01:02;6.30;99.90
53695;DHT22;39588;51.124;7.190;2023-02-13T06:03:29;6.30;99.90
53695;DHT22;39588;51.124;7.190;2023-02-13T06:05:55;6.30;99.90
53695;DHT22;39588;51.124;7.190;2023-02-13T06:08:21;6.30;99.90
53695;DHT22;39588;51.124;7.190;2023-02-13T06:10:48;6.20;99.90
53695;DHT22;39588;51.124;7.190;2023-02-13T06:13:14;6.20;99.90
53695;DHT22;39588;51.124;7.190;2023-02-13T06:15:40;6.10;99.90
53695;DHT22;39588;51.124;7.190;2023-02-13T06:18:05;6.10;99.90
53695;DHT22;39588;51.124;7.190;2023-02-13T06:20:43;6.00;99.90
53695;DHT22;39588;51.124;7.190;2023-02-13T06:23:09;5.90;99.90
53695;DHT22;39588;51.124;7.190;2023-02-13T06:25:35;5.90;99.90
53695;DHT22;39588;51.124;7.190;2023-02-13T06:28:01;5.90;99.90
53695;DHT22;39588;51.124;7.190;2023-02-13T06:30:33;5.80;99.90
53695;DHT22;39588;51.124;7.190;2023-02-13T06:32:59;5.80;99.90
53695;DHT22;39588;51.124;7.190;2023-02-13T06:35:25;5.80;99.90
53695;DHT22;39588;51.124;7.190;2023-02-13T06:37:51;5.80;99.90
53695;DHT22;39588;51.124;7.190;2023-02-13T06:40:17;5.80;99.90
53695;DHT22;39588;51.124;7.190;2023-02-13T06:45:09;5.80;99.90
53695;DHT22;39588;51.124;7.190;2023-02-13T06:47:40;5.80;99.90
53695;DHT22;39588;51.124;7.190;2023-02-13T06:50:06;5.70;99.90
53695;DHT22;39588;51.124;7.190;2023-02-13T06:52:31;5.70;99.90
53695;DHT22;39588;51.124;7.190;2023-02-13T07:02:15;5.50;99.90
53695;DHT22;39588;51.124;7.190;2023-02-13T07:04:41;5.50;99.90
53695;DHT22;39588;51.124;7.190;2023-02-13T07:07:06;5.50;99.90
53695;DHT22;39588;51.124;7.190;2023-02-13T07:09:32;5.50;99.90
53695;DHT22;39588;51.124;7.190;2023-02-13T07:14:23;5.50;99.90
53695;DHT22;39588;51.124;7.190;2023-02-13T07:16:49;5.50;99.90
53695;DHT22;39588;51.124;7.190;2023-02-13T07:21:40;5.50;99.90
53695;DHT22;39588;51.124;7.190;2023-02-13T07:31:33;5.70;99.90
53695;DHT22;39588;51.124;7.190;2023-02-13T07:33:59;5.70;99.90
53695;DHT22;39588;51.124;7.190;2023-02-13T07:36:26;5.70;99.90
53695;DHT22;39588;51.124;7.190;2023-02-13T07:38:52;5.80;99.90
53695;DHT22;39588;51.124;7.190;2023-02-13T07:41:17;5.80;99.90
53695;DHT22;39588;51.124;7.190;2023-02-13T07:46:09;5.80;99.90
53695;DHT22;39588;51.124;7.190;2023-02-13T07:51:04;5.80;99.90
53695;DHT22;39588;51.124;7.190;2023-02-13T07:55:56;5.90;99.90
53695;DHT22;39588;51.124;7.190;2023-02-13T07:58:22;5.90;99.90
53695;DHT22;39588;51.124;7.190;2023-02-13T08:00:48;5.90;99.90
53695;DHT22;39588;51.124;7.190;2023-02-13T08:03:14;6.50;99.90
53695;DHT22;39588;51.124;7.190;2023-02-13T08:05:40;6.00;99.90
53695;DHT22;39588;51.124;7.190;2023-02-13T08:08:06;6.00;99.90
53695;DHT22;39588;51.124;7.190;2023-02-13T08:13:16;6.10;99.90
53695;DHT22;39588;51.124;7.190;2023-02-13T08:15:42;6.20;99.90
53695;DHT22;39588;51.124;7.190;2023-02-13T08:18:11;6.20;99.90
53695;DHT22;39588;51.124;7.190;2023-02-13T08:20:37;6.30;99.90
53695;DHT22;39588;51.124;7.190;2023-02-13T08:23:08;6.30;99.90
53695;DHT22;39588;51.124;7.190;2023-02-13T08:25:34;6.40;99.90
53695;DHT22;39588;51.124;7.190;2023-02-13T08:28:00;6.40;99.90
53695;DHT22;39588;51.124;7.190;2023-02-13T08:30:26;6.50;99.90
53695;DHT22;39588;51.124;7.190;2023-02-13T08:32:53;6.50;99.90
53695;DHT22;39588;51.124;7.190;2023-02-13T08:37:45;6.60;99.90
53695;DHT22;39588;51.124;7.190;2023-02-13T08:42:37;6.80;99.90
53695;DHT22;39588;51.124;7.190;2023-02-13T08:45:03;6.80;99.90
53695;DHT22;39588;51.124;7.190;2023-02-13T08:47:30;6.80;99.90
53695;DHT22;39588;51.124;7.190;2023-02-13T08:49:56;6.90;99.90
53695;DHT22;39588;51.124;7.190;2023-02-13T08:52:21;7.00;99.90
53695;DHT22;39588;51.124;7.190;2023-02-13T08:59:39;7.20;99.90
53695;DHT22;39588;51.124;7.190;2023-02-13T09:04:41;7.60;99.70
53695;DHT22;39588;51.124;7.190;2023-02-13T09:07:06;7.60;99.50
53695;DHT22;39588;51.124;7.190;2023-02-13T09:14:25;7.90;99.30
53695;DHT22;39588;51.124;7.190;2023-02-13T09:16:51;8.00;99.20
53695;DHT22;39588;51.124;7.190;2023-02-13T09:21:42;8.10;99.00
53695;DHT22;39588;51.124;7.190;2023-02-13T09:24:09;8.10;98.90
53695;DHT22;39588;51.124;7.190;2023-02-13T09:29:01;8.30;98.70
53695;DHT22;39588;51.124;7.190;2023-02-13T09:31:27;8.40;98.70
53695;DHT22;39588;51.124;7.190;2023-02-13T09:33:53;8.50;98.50
53695;DHT22;39588;51.124;7.190;2023-02-13T09:44:40;9.00;97.90
53695;DHT22;39588;51.124;7.190;2023-02-13T09:47:21;9.00;97.80
53695;DHT22;39588;51.124;7.190;2023-02-13T09:49:56;9.00;97.80
53695;DHT22;39588;51.124;7.190;2023-02-13T09:52:26;9.00;97.90
53695;DHT22;39588;51.124;7.190;2023-02-13T09:54:52;9.20;97.90
53695;DHT22;39588;51.124;7.190;2023-02-13T09:57:33;9.20;97.50
53695;DHT22;39588;51.124;7.190;2023-02-13T10:00:07;9.10;97.60
53695;DHT22;39588;51.124;7.190;2023-02-13T10:02:52;9.10;97.60
53695;DHT22;39588;51.124;7.190;2023-02-13T10:13:45;9.40;97.10
53695;DHT22;39588;51.124;7.190;2023-02-13T10:16:16;9.50;97.60
53695;DHT22;39588;51.124;7.190;2023-02-13T10:18:54;9.70;97.40
53695;DHT22;39588;51.124;7.190;2023-02-13T10:21:25;9.70;97.20
53695;DHT22;39588;51.124;7.190;2023-02-13T10:26:26;9.70;97.00
53695;DHT22;39588;51.124;7.190;2023-02-13T10:29:11;9.80;96.90
53695;DHT22;39588;51.124;7.190;2023-02-13T10:32:00;9.90;96.90
53695;DHT22;39588;51.124;7.190;2023-02-13T10:34:27;9.90;96.70
53695;DHT22;39588;51.124;7.190;2023-02-13T10:36:56;10.00;96.10
53695;DHT22;39588;51.124;7.190;2023-02-13T10:39:25;10.10;96.10
53695;DHT22;39588;51.124;7.190;2023-02-13T10:42:05;10.10;96.30
53695;DHT22;39588;51.124;7.190;2023-02-13T10:44:54;10.10;96.20
53695;DHT22;39588;51.124;7.190;2023-02-13T10:55:52;10.30;96.00
53695;DHT22;39588;51.124;7.190;2023-02-13T10:58:53;10.40;95.90
53695;DHT22;39588;51.124;7.190;2023-02-13T11:01:26;10.50;95.90
53695;DHT22;39588;51.124;7.190;2023-02-13T11:04:13;10.50;95.50
53695;DHT22;39588;51.124;7.190;2023-02-13T11:06:45;10.60;95.70
53695;DHT22;39588;51.124;7.190;2023-02-13T11:09:13;10.60;95.50
53695;DHT22;39588;51.124;7.190;2023-02-13T11:11:41;10.60;95.40
53695;DHT22;39588;51.124;7.190;2023-02-13T11:19:21;10.90;95.50
53695;DHT22;39588;51.124;7.190;2023-02-13T11:21:52;11.00;95.60
53695;DHT22;39588;51.124;7.190;2023-02-13T11:24:24;11.10;95.30
53695;DHT22;39588;51.124;7.190;2023-02-13T11:26:52;13.40;96.10
53695;DHT22;39588;51.124;7.190;2023-02-13T11:29:31;11.20;95.30
53695;DHT22;39588;51.124;7.190;2023-02-13T11:32:17;11.30;95.30
53695;DHT22;39588;51.124;7.190;2023-02-13T11:34:43;11.30;94.80
53695;DHT22;39588;51.124;7.190;2023-02-13T11:39:39;11.50;94.90
53695;DHT22;39588;51.124;7.190;2023-02-13T11:42:36;11.50;94.40
53695;DHT22;39588;51.124;7.190;2023-02-13T11:45:25;11.40;94.10
53695;DHT22;39588;51.124;7.190;2023-02-13T11:47:51;11.40;94.80
53695;DHT22;39588;51.124;7.190;2023-02-13T11:50:32;11.50;94.60
53695;DHT22;39588;51.124;7.190;2023-02-13T11:53:05;11.50;94.60
53695;DHT22;39588;51.124;7.190;2023-02-13T11:58:21;11.60;94.50
53695;DHT22;39588;51.124;7.190;2023-02-13T12:00:47;11.60;94.10
53695;DHT22;39588;51.124;7.190;2023-02-13T12:03:25;11.60;93.40
53695;DHT22;39588;51.124;7.190;2023-02-13T12:06:13;11.60;93.70
53695;DHT22;39588;51.124;7.190;2023-02-13T12:08:42;11.60;93.90
53695;DHT22;39588;51.124;7.190;2023-02-13T12:14:30;11.80;93.60
53695;DHT22;39588;51.124;7.190;2023-02-13T12:17:02;11.90;93.30
53695;DHT22;39588;51.124;7.190;2023-02-13T12:19:40;11.90;93.50
53695;DHT22;39588;51.124;7.190;2023-02-13T12:55:37;12.40;91.80
53695;DHT22;39588;51.124;7.190;2023-02-13T13:04:13;12.50;92.20
53695;DHT22;39588;51.124;7.190;2023-02-13T13:17:47;12.60;90.40
53695;DHT22;39588;51.124;7.190;2023-02-13T13:23:12;12.60;90.30
53695;DHT22;39588;51.124;7.190;2023-02-13T13:25:56;12.60;91.30
53695;DHT22;39588;51.124;7.190;2023-02-13T13:28:28;12.70;90.20
53695;DHT22;39588;51.124;7.190;2023-02-13T13:30:57;12.60;90.00
53695;DHT22;39588;51.124;7.190;2023-02-13T13:33:24;12.70;90.70
53695;DHT22;39588;51.124;7.190;2023-02-13T13:51:45;12.80;86.60
53695;DHT22;39588;51.124;7.190;2023-02-13T13:59:18;12.80;87.00
53695;DHT22;39588;51.124;7.190;2023-02-13T14:01:44;12.80;88.50
53695;DHT22;39588;51.124;7.190;2023-02-13T14:11:53;12.80;85.70
53695;DHT22;39588;51.124;7.190;2023-02-13T14:16:55;12.80;85.60
53695;DHT22;39588;51.124;7.190;2023-02-13T14:19:34;12.80;86.10
53695;DHT22;39588;51.124;7.190;2023-02-13T14:24:50;12.80;87.10
53695;DHT22;39588;51.124;7.190;2023-02-13T14:27:32;12.60;87.10
53695;DHT22;39588;51.124;7.190;2023-02-13T14:29:59;12.70;86.40
53695;DHT22;39588;51.124;7.190;2023-02-13T14:32:34;12.70;87.30
53695;DHT22;39588;51.124;7.190;2023-02-13T14:42:53;12.60;87.00
53695;DHT22;39588;51.124;7.190;2023-02-13T14:45:24;12.60;86.80
53695;DHT22;39588;51.124;7.190;2023-02-13T14:47:56;12.60;86.10
53695;DHT22;39588;51.124;7.190;2023-02-13T14:50:27;12.70;88.30
53695;DHT22;39588;51.124;7.190;2023-02-13T14:52:54;12.60;86.60
53695;DHT22;39588;51.124;7.190;2023-02-13T14:58:06;12.60;84.50
53695;DHT22;39588;51.124;7.190;2023-02-13T15:03:18;12.50;85.40
53695;DHT22;39588;51.124;7.190;2023-02-13T15:05:53;12.50;86.20
53695;DHT22;39588;51.124;7.190;2023-02-13T15:08:23;12.50;85.30
53695;DHT22;39588;51.124;7.190;2023-02-13T15:10:53;12.50;84.80
53695;DHT22;39588;51.124;7.190;2023-02-13T15:18:28;13.40;81.50
53695;DHT22;39588;51.124;7.190;2023-02-13T15:20:56;13.70;77.60
53695;DHT22;39588;51.124;7.190;2023-02-13T15:23:29;13.50;76.00
53695;DHT22;39588;51.124;7.190;2023-02-13T15:28:26;12.90;77.60
53695;DHT22;39588;51.124;7.190;2023-02-13T15:31:23;12.70;78.90
53695;DHT22;39588;51.124;7.190;2023-02-13T15:33:50;12.40;80.80
53695;DHT22;39588;51.124;7.190;2023-02-13T15:36:19;12.30;82.20
53695;DHT22;39588;51.124;7.190;2023-02-13T15:41:21;12.20;85.60
53695;DHT22;39588;51.124;7.190;2023-02-13T15:43:52;12.10;86.30
53695;DHT22;39588;51.124;7.190;2023-02-13T15:46:26;12.10;87.50
53695;DHT22;39588;51.124;7.190;2023-02-13T15:48:55;12.00;87.80
53695;DHT22;39588;51.124;7.190;2023-02-13T15:51:24;12.00;87.70
53695;DHT22;39588;51.124;7.190;2023-02-13T15:56:24;11.90;88.70
53695;DHT22;39588;51.124;7.190;2023-02-13T15:58:51;11.90;88.90
53695;DHT22;39588;51.124;7.190;2023-02-13T16:01:34;11.80;88.90
53695;DHT22;39588;51.124;7.190;2023-02-13T16:04:05;11.70;89.20
53695;DHT22;39588;51.124;7.190;2023-02-13T16:06:33;11.70;89.40
53695;DHT22;39588;51.124;7.190;2023-02-13T16:09:00;11.60;88.90
53695;DHT22;39588;51.124;7.190;2023-02-13T16:11:32;11.50;89.10
53695;DHT22;39588;51.124;7.190;2023-02-13T16:19:44;11.30;89.70
53695;DHT22;39588;51.124;7.190;2023-02-13T16:22:30;11.20;89.00
53695;DHT22;39588;51.124;7.190;2023-02-13T16:32:43;11.00;89.70
53695;DHT22;39588;51.124;7.190;2023-02-13T16:35:27;10.90;90.10
53695;DHT22;39588;51.124;7.190;2023-02-13T16:38:00;10.80;90.10
53695;DHT22;39588;51.124;7.190;2023-02-13T16:40:37;10.80;90.10
53695;DHT22;39588;51.124;7.190;2023-02-13T16:51:45;10.50;90.60
53695;DHT22;39588;51.124;7.190;2023-02-13T16:57:01;10.30;91.00
53695;DHT22;39588;51.124;7.190;2023-02-13T16:59:35;10.20;91.40
53695;DHT22;39588;51.124;7.190;2023-02-13T17:02:21;10.20;91.40
53695;DHT22;39588;51.124;7.190;2023-02-13T17:07:43;10.10;91.70
53695;DHT22;39588;51.124;7.190;2023-02-13T17:10:20;10.10;91.70
53695;DHT22;39588;51.124;7.190;2023-02-13T17:12:47;10.10;91.70
53695;DHT22;39588;51.124;7.190;2023-02-13T17:15:15;10.00;91.80
53695;DHT22;39588;51.124;7.190;2023-02-13T17:20:21;10.00;92.20
53695;DHT22;39588;51.124;7.190;2023-02-13T17:22:49;10.00;92.20
53695;DHT22;39588;51.124;7.190;2023-02-13T17:28:01;9.90;92.80
53695;DHT22;39588;51.124;7.190;2023-02-13T17:30:32;9.80;93.10
53695;DHT22;39588;51.124;7.190;2023-02-13T17:33:03;9.70;93.20
53695;DHT22;39588;51.124;7.190;2023-02-13T17:35:29;9.70;93.20
53695;DHT22;39588;51.124;7.190;2023-02-13T17:37:55;9.70;93.40
53695;DHT22;39588;51.124;7.190;2023-02-13T17:40:23;9.70;93.60
53695;DHT22;39588;51.124;7.190;2023-02-13T17:42:52;9.60;93.70
53695;DHT22;39588;51.124;7.190;2023-02-13T17:45:20;9.60;93.80
53695;DHT22;39588;51.124;7.190;2023-02-13T17:47:46;9.50;93.90
53695;DHT22;39588;51.124;7.190;2023-02-13T17:50:12;9.50;94.00
53695;DHT22;39588;51.124;7.190;2023-02-13T17:52:40;9.50;94.10
53695;DHT22;39588;51.124;7.190;2023-02-13T17:55:24;9.50;94.20
53695;DHT22;39588;51.124;7.190;2023-02-13T17:57:55;9.40;94.40
53695;DHT22;39588;51.124;7.190;2023-02-13T18:00:22;9.40;94.30
53695;DHT22;39588;51.124;7.190;2023-02-13T18:02:49;9.40;94.30
53695;DHT22;39588;51.124;7.190;2023-02-13T18:05:16;9.40;94.40
53695;DHT22;39588;51.124;7.190;2023-02-13T18:10:20;9.30;94.70
53695;DHT22;39588;51.124;7.190;2023-02-13T18:12:47;9.20;94.70
53695;DHT22;39588;51.124;7.190;2023-02-13T18:15:13;9.20;94.90
53695;DHT22;39588;51.124;7.190;2023-02-13T18:17:39;9.20;94.80
53695;DHT22;39588;51.124;7.190;2023-02-13T18:20:06;9.20;95.00
53695;DHT22;39588;51.124;7.190;2023-02-13T18:22:32;9.20;95.00
53695;DHT22;39588;51.124;7.190;2023-02-13T18:24:57;9.20;95.00
53695;DHT22;39588;51.124;7.190;2023-02-13T18:27:24;9.10;95.00
53695;DHT22;39588;51.124;7.190;2023-02-13T18:32:17;9.00;95.20
53695;DHT22;39588;51.124;7.190;2023-02-13T18:34:42;9.00;95.20
53695;DHT22;39588;51.124;7.190;2023-02-13T18:37:11;8.90;95.30
53695;DHT22;39588;51.124;7.190;2023-02-13T18:39:36;8.80;95.40
53695;DHT22;39588;51.124;7.190;2023-02-13T18:42:02;8.80;95.40
53695;DHT22;39588;51.124;7.190;2023-02-13T18:46:57;8.70;95.40
53695;DHT22;39588;51.124;7.190;2023-02-13T18:49:23;8.70;95.50
53695;DHT22;39588;51.124;7.190;2023-02-13T18:51:49;8.70;95.40
53695;DHT22;39588;51.124;7.190;2023-02-13T18:54:15;8.70;95.60
53695;DHT22;39588;51.124;7.190;2023-02-13T18:56:45;8.70;95.60
53695;DHT22;39588;51.124;7.190;2023-02-13T18:59:10;8.70;95.60
53695;DHT22;39588;51.124;7.190;2023-02-13T19:04:03;8.70;95.60
53695;DHT22;39588;51.124;7.190;2023-02-13T19:06:29;8.70;95.60
53695;DHT22;39588;51.124;7.190;2023-02-13T19:08:56;8.70;95.70
53695;DHT22;39588;51.124;7.190;2023-02-13T19:11:22;8.60;95.80
53695;DHT22;39588;51.124;7.190;2023-02-13T19:13:56;8.60;95.70
53695;DHT22;39588;51.124;7.190;2023-02-13T19:16:26;8.60;95.90
53695;DHT22;39588;51.124;7.190;2023-02-13T19:18:54;8.60;96.00
53695;DHT22;39588;51.124;7.190;2023-02-13T19:21:21;8.50;96.00
53695;DHT22;39588;51.124;7.190;2023-02-13T19:23:47;8.50;96.00
53695;DHT22;39588;51.124;7.190;2023-02-13T19:26:16;8.50;96.10
53695;DHT22;39588;51.124;7.190;2023-02-13T19:28:42;8.40;96.10
53695;DHT22;39588;51.124;7.190;2023-02-13T19:31:11;8.40;96.10
53695;DHT22;39588;51.124;7.190;2023-02-13T19:33:38;8.40;96.20
53695;DHT22;39588;51.124;7.190;2023-02-13T19:36:06;8.30;96.20
53695;DHT22;39588;51.124;7.190;2023-02-13T19:38:40;8.30;96.40
53695;DHT22;39588;51.124;7.190;2023-02-13T19:41:10;8.30;96.40
53695;DHT22;39588;51.124;7.190;2023-02-13T19:43:36;8.20;96.50
53695;DHT22;39588;51.124;7.190;2023-02-13T19:46:04;8.20;96.50
53695;DHT22;39588;51.124;7.190;2023-02-13T19:48:30;8.20;96.60
53695;DHT22;39588;51.124;7.190;2023-02-13T19:50:56;8.10;96.60
53695;DHT22;39588;51.124;7.190;2023-02-13T19:53:22;8.10;96.70
53695;DHT22;39588;51.124;7.190;2023-02-13T19:55:48;8.10;96.70
53695;DHT22;39588;51.124;7.190;2023-02-13T20:05:39;8.00;96.90
53695;DHT22;39588;51.124;7.190;2023-02-13T20:08:05;8.00;97.00
53695;DHT22;39588;51.124;7.190;2023-02-13T20:10:31;7.90;96.90
53695;DHT22;39588;51.124;7.190;2023-02-13T20:12:56;7.90;97.00
53695;DHT22;39588;51.124;7.190;2023-02-13T20:15:23;7.90;97.10
53695;DHT22;39588;51.124;7.190;2023-02-13T20:17:50;7.90;97.00
53695;DHT22;39588;51.124;7.190;2023-02-13T20:20:16;7.80;97.00
53695;DHT22;39588;51.124;7.190;2023-02-13T20:22:41;7.80;97.00
53695;DHT22;39588;51.124;7.190;2023-02-13T20:25:07;7.70;97.10
53695;DHT22;39588;51.124;7.190;2023-02-13T20:27:36;7.70;97.20
53695;DHT22;39588;51.124;7.190;2023-02-13T20:30:07;7.60;97.20
53695;DHT22;39588;51.124;7.190;2023-02-13T20:32:34;7.60;97.30
53695;DHT22;39588;51.124;7.190;2023-02-13T20:37:26;7.60;97.30
53695;DHT22;39588;51.124;7.190;2023-02-13T20:42:17;7.50;97.50
53695;DHT22;39588;51.124;7.190;2023-02-13T20:44:43;7.50;97.50
53695;DHT22;39588;51.124;7.190;2023-02-13T20:52:01;7.40;97.70
53695;DHT22;39588;51.124;7.190;2023-02-13T20:59:19;7.40;97.90
53695;DHT22;39588;51.124;7.190;2023-02-13T21:04:11;7.40;97.90
53695;DHT22;39588;51.124;7.190;2023-02-13T21:06:40;7.40;98.00
53695;DHT22;39588;51.124;7.190;2023-02-13T21:09:08;7.30;98.00
53695;DHT22;39588;51.124;7.190;2023-02-13T21:11:36;7.30;98.00
53695;DHT22;39588;51.124;7.190;2023-02-13T21:14:02;7.30;98.00
53695;DHT22;39588;51.124;7.190;2023-02-13T21:16:31;7.30;98.10
53695;DHT22;39588;51.124;7.190;2023-02-13T21:19:00;7.20;98.10
53695;DHT22;39588;51.124;7.190;2023-02-13T21:21:29;7.20;98.10
53695;DHT22;39588;51.124;7.190;2023-02-13T21:24:00;7.20;98.10
53695;DHT22;39588;51.124;7.190;2023-02-13T21:26:27;7.20;98.20
53695;DHT22;39588;51.124;7.190;2023-02-13T21:28:54;7.20;98.10
53695;DHT22;39588;51.124;7.190;2023-02-13T21:31:29;7.10;98.10
53695;DHT22;39588;51.124;7.190;2023-02-13T21:34:06;7.10;98.20
53695;DHT22;39588;51.124;7.190;2023-02-13T21:36:33;7.10;98.20
53695;DHT22;39588;51.124;7.190;2023-02-13T21:39:00;7.00;98.20
53695;DHT22;39588;51.124;7.190;2023-02-13T21:41:26;7.00;98.20
53695;DHT22;39588;51.124;7.190;2023-02-13T21:43:52;7.00;98.20
53695;DHT22;39588;51.124;7.190;2023-02-13T21:48:45;6.90;98.20
53695;DHT22;39588;51.124;7.190;2023-02-13T21:51:16;6.90;98.20
53695;DHT22;39588;51.124;7.190;2023-02-13T21:53:43;6.90;98.20
53695;DHT22;39588;51.124;7.190;2023-02-13T21:56:24;6.80;98.10
53695;DHT22;39588;51.124;7.190;2023-02-13T21:58:50;6.80;98.20
53695;DHT22;39588;51.124;7.190;2023-02-13T22:01:21;6.80;98.10
53695;DHT22;39588;51.124;7.190;2023-02-13T22:03:47;6.80;98.20
53695;DHT22;39588;51.124;7.190;2023-02-13T22:06:15;6.70;98.10
53695;DHT22;39588;51.124;7.190;2023-02-13T22:08:42;6.70;98.10
53695;DHT22;39588;51.124;7.190;2023-02-13T22:11:08;6.70;98.10
53695;DHT22;39588;51.124;7.190;2023-02-13T22:13:35;6.70;98.20
53695;DHT22;39588;51.124;7.190;2023-02-13T22:16:09;6.60;98.20
53695;DHT22;39588;51.124;7.190;2023-02-13T22:18:37;6.60;98.20
53695;DHT22;39588;51.124;7.190;2023-02-13T22:21:11;6.60;98.20
53695;DHT22;39588;51.124;7.190;2023-02-13T22:23:38;6.60;98.30
53695;DHT22;39588;51.124;7.190;2023-02-13T22:26:04;6.60;98.30
53695;DHT22;39588;51.124;7.190;2023-02-13T22:28:30;6.50;98.20
53695;DHT22;39588;51.124;7.190;2023-02-13T22:30:56;6.50;98.20
53695;DHT22;39588;51.124;7.190;2023-02-13T22:33:22;6.50;98.30
53695;DHT22;39588;51.124;7.190;2023-02-13T22:35:48;6.50;98.30
53695;DHT22;39588;51.124;7.190;2023-02-13T22:38:13;6.40;98.30
53695;DHT22;39588;51.124;7.190;2023-02-13T22:40:39;6.40;98.30
53695;DHT22;39588;51.124;7.190;2023-02-13T22:43:05;6.40;98.20
53695;DHT22;39588;51.124;7.190;2023-02-13T22:45:35;6.40;98.30
53695;DHT22;39588;51.124;7.190;2023-02-13T22:48:01;6.40;98.30
53695;DHT22;39588;51.124;7.190;2023-02-13T22:50:27;6.30;98.30
53695;DHT22;39588;51.124;7.190;2023-02-13T22:52:53;6.30;98.30